createdAt,value
2023-05-09T00:03:59.344Z,76.36
2023-05-09T00:08:03.278Z,77.30
2023-05-09T00:12:06.738Z,77.37
2023-05-09T00:16:10.476Z,77.00
2023-05-09T00:20:13.357Z,77.22
2023-05-09T00:24:17.437Z,76.53
2023-05-09T00:28:20.054Z,76.29
2023-05-09T00:32:22.761Z,75.78
2023-05-09T00:36:25.533Z,75.25
2023-05-09T00:40:29.566Z,74.49
2023-05-09T00:44:32.213Z,73.77
2023-05-09T00:48:34.851Z,73.66
2023-05-09T00:52:38.167Z,72.90
2023-05-09T00:56:42.269Z,72.89
2023-05-09T01:00:44.875Z,73.29
2023-05-09T01:04:48.110Z,73.73
2023-05-09T01:08:59.866Z,74.54
2023-05-09T01:13:07.290Z,75.87
2023-05-09T01:17:17.296Z,75.38
2023-05-09T01:21:25.427Z,75.00
2023-05-09T01:25:39.052Z,75.30
2023-05-09T01:29:45.991Z,74.07
2023-05-09T01:33:57.698Z,73.16
2023-05-09T01:38:00.616Z,73.30
2023-05-09T01:42:05.716Z,73.23
2023-05-09T01:46:10.921Z,73.20
2023-05-09T01:50:13.791Z,73.78
2023-05-09T01:54:17.949Z,75.11
2023-05-09T01:58:22.259Z,74.68
2023-05-09T02:02:27.084Z,74.22
2023-05-09T02:06:31.168Z,73.72
2023-05-09T02:10:35.189Z,73.40
2023-05-09T02:14:37.852Z,73.62
2023-05-09T02:18:41.769Z,74.07
2023-05-09T02:22:45.239Z,74.50
2023-05-09T02:26:48.038Z,74.37
2023-05-09T02:30:53.242Z,74.43
2023-05-09T02:34:59.161Z,74.08
2023-05-09T02:39:02.258Z,74.41
2023-05-09T02:43:05.070Z,74.57
2023-05-09T02:47:08.458Z,74.48
2023-05-09T02:51:12.408Z,74.99
2023-05-09T02:55:15.242Z,75.63
2023-05-09T02:59:19.940Z,76.32
2023-05-09T03:03:23.467Z,76.16
2023-05-09T03:07:27.458Z,77.17
2023-05-09T03:11:30.758Z,77.67
2023-05-09T03:15:33.342Z,78.00
2023-05-09T03:19:35.984Z,78.11
2023-05-09T03:23:40.337Z,78.49
2023-05-09T03:27:42.923Z,78.29
2023-05-09T03:31:46.170Z,78.33
2023-05-09T03:35:48.846Z,78.43
2023-05-09T03:39:52.789Z,77.67
2023-05-09T03:43:55.429Z,78.05
2023-05-09T03:47:58.068Z,77.17
2023-05-09T03:52:00.687Z,77.85
2023-05-09T03:56:04.673Z,77.46
2023-05-09T04:00:10.385Z,77.07
2023-05-09T04:04:13.361Z,77.34
2023-05-09T04:08:16.341Z,77.32
2023-05-09T04:12:20.284Z,76.39
2023-05-09T04:16:22.948Z,76.46
2023-05-09T04:20:25.586Z,76.23
2023-05-09T04:24:28.183Z,76.20
2023-05-09T04:28:32.432Z,76.54
2023-05-09T04:32:35.862Z,76.58
2023-05-09T04:36:38.563Z,76.51
2023-05-09T04:40:41.132Z,76.52
2023-05-09T04:44:45.188Z,76.02
2023-05-09T04:48:47.789Z,75.61
2023-05-09T04:52:50.406Z,76.02
2023-05-09T04:56:53.264Z,74.68
2023-05-09T05:01:00.060Z,73.07
2023-05-09T05:05:11.635Z,73.24
2023-05-09T05:09:15.007Z,73.48
2023-05-09T05:13:17.643Z,72.33
2023-05-09T05:17:21.940Z,69.99
2023-05-09T05:21:24.590Z,68.93
2023-05-09T05:25:27.447Z,67.70
2023-05-09T05:29:30.084Z,66.14
2023-05-09T05:33:34.064Z,65.89
2023-05-09T05:37:36.648Z,65.92
2023-05-09T05:41:39.267Z,64.47
2023-05-09T05:45:41.906Z,64.07
2023-05-09T05:49:46.602Z,63.77
2023-05-09T05:53:49.614Z,64.05
2023-05-09T05:57:52.649Z,64.35
2023-05-09T06:01:55.292Z,64.19
2023-05-09T06:05:59.310Z,62.22
2023-05-09T06:10:01.928Z,63.53
2023-05-09T06:14:04.597Z,61.90
2023-05-09T06:18:09.013Z,60.82
2023-05-09T06:22:13.038Z,59.57
2023-05-09T06:26:16.587Z,59.60
2023-05-09T06:30:26.200Z,61.18
2023-05-09T06:34:29.766Z,58.87
2023-05-09T06:38:35.596Z,60.13
2023-05-09T06:42:38.570Z,59.11
2023-05-09T06:46:41.679Z,57.59
2023-05-09T06:50:44.494Z,57.04
2023-05-09T06:54:48.528Z,55.98
2023-05-09T06:58:51.570Z,55.90
2023-05-09T07:02:54.201Z,56.05
2023-05-09T07:06:56.860Z,55.17
2023-05-09T07:11:00.817Z,55.21
2023-05-09T07:15:03.460Z,54.94
2023-05-09T07:19:06.133Z,55.89
2023-05-09T07:23:08.772Z,54.36
2023-05-09T07:27:12.712Z,53.14
2023-05-09T07:31:15.322Z,53.27
2023-05-09T07:35:18.544Z,53.71
2023-05-09T07:39:21.543Z,53.88
2023-05-09T07:43:25.521Z,52.40
2023-05-09T07:47:28.264Z,53.30
2023-05-09T07:51:32.090Z,52.21
2023-05-09T07:55:34.707Z,53.75
2023-05-09T07:59:38.691Z,53.00
2023-05-09T08:03:41.539Z,53.97
2023-05-09T08:07:44.535Z,53.32
2023-05-09T08:11:47.141Z,52.50
2023-05-09T08:15:51.235Z,52.83
2023-05-09T08:19:53.940Z,51.02
2023-05-09T08:23:56.972Z,53.41
2023-05-09T08:28:00.521Z,52.26
2023-05-09T08:32:05.544Z,51.75
2023-05-09T08:36:08.541Z,50.39
2023-05-09T08:40:11.797Z,51.04
2023-05-09T08:44:14.592Z,51.46
2023-05-09T08:48:19.250Z,50.53
2023-05-09T08:52:22.558Z,50.93
2023-05-09T08:56:26.541Z,48.96
2023-05-09T09:00:30.689Z,48.03
2023-05-09T09:04:34.689Z,47.37
2023-05-09T09:08:37.534Z,46.39
2023-05-09T09:12:41.773Z,46.81
2023-05-09T09:16:47.562Z,46.05
2023-05-09T09:20:56.534Z,46.68
2023-05-09T09:24:59.116Z,44.75
2023-05-09T09:29:01.909Z,42.65
2023-05-09T09:33:07.818Z,46.47
2023-05-09T09:37:23.507Z,46.29
2023-05-09T09:41:31.639Z,43.25
2023-05-09T09:45:34.300Z,44.27
2023-05-09T09:49:36.946Z,42.44
2023-05-09T09:53:44.888Z,43.80
2023-05-09T09:57:48.368Z,42.34
2023-05-09T10:01:56.011Z,44.04
2023-05-09T10:06:02.623Z,44.06
2023-05-09T10:10:07.727Z,44.47
2023-05-09T10:14:10.731Z,44.42
2023-05-09T10:18:19.787Z,45.64
2023-05-09T10:22:24.778Z,46.09
2023-05-09T10:26:36.550Z,44.26
2023-05-09T10:30:45.259Z,45.60
2023-05-09T10:34:52.384Z,44.52
2023-05-09T10:38:56.431Z,45.83
2023-05-09T10:43:00.412Z,44.64
2023-05-09T10:47:03.713Z,45.82
2023-05-09T10:51:08.482Z,46.25
2023-05-09T10:55:11.383Z,46.06
2023-05-09T10:59:41.295Z,46.78
2023-05-09T11:03:55.507Z,46.24
2023-05-09T11:08:19.150Z,44.49
2023-05-09T11:12:24.982Z,46.13
2023-05-09T11:16:29.028Z,45.07
2023-05-09T11:20:35.142Z,44.53
2023-05-09T11:24:39.479Z,45.06
2023-05-09T11:28:42.055Z,45.18
2023-05-09T11:32:48.039Z,45.71
2023-05-09T11:36:50.677Z,41.80
2023-05-09T11:40:56.014Z,43.72
2023-05-09T11:44:58.886Z,42.53
2023-05-09T11:49:04.447Z,43.46
2023-05-09T11:53:08.527Z,42.50
2023-05-09T11:57:11.694Z,43.64
2023-05-09T12:01:14.396Z,41.46
2023-05-09T12:05:20.175Z,42.24
2023-05-09T12:09:22.959Z,41.76
2023-05-09T12:13:25.576Z,41.30
2023-05-09T12:17:28.316Z,41.24
2023-05-09T12:21:33.101Z,41.42
2023-05-09T12:25:35.843Z,41.10
2023-05-09T12:29:40.317Z,41.50
2023-05-09T12:33:43.186Z,41.76
2023-05-09T12:37:58.885Z,41.19
2023-05-09T12:42:02.319Z,40.81
2023-05-09T12:46:05.652Z,39.86
2023-05-09T12:50:11.559Z,36.85
2023-05-09T12:54:20.454Z,39.15
2023-05-09T12:58:23.104Z,39.22
2023-05-09T13:02:27.439Z,39.12
2023-05-09T13:06:30.836Z,35.38
2023-05-09T13:10:34.888Z,34.44
2023-05-09T13:14:38.451Z,37.11
2023-05-09T13:18:41.046Z,38.76
2023-05-09T13:22:44.812Z,32.69
2023-05-09T13:26:48.730Z,32.98
2023-05-09T13:30:51.490Z,32.88
2023-05-09T13:34:54.246Z,31.83
2023-05-09T13:38:57.396Z,34.41
2023-05-09T13:43:01.365Z,32.41
2023-05-09T13:47:04.162Z,33.10
2023-05-09T13:51:07.840Z,32.72
2023-05-09T13:55:11.006Z,31.14
2023-05-09T13:59:15.018Z,30.51
2023-05-09T14:03:17.788Z,27.80
2023-05-09T14:07:20.457Z,28.65
2023-05-09T14:11:23.490Z,27.72
2023-05-09T14:15:27.495Z,28.79
2023-05-09T14:19:30.302Z,28.63
2023-05-09T14:23:32.954Z,28.35
2023-05-09T14:27:36.923Z,29.60
2023-05-09T14:31:41.031Z,27.64
2023-05-09T14:35:43.680Z,27.16
2023-05-09T14:39:46.837Z,26.03
2023-05-09T14:43:49.696Z,28.99
2023-05-09T14:47:53.735Z,30.23
2023-05-09T14:51:56.411Z,28.07
2023-05-09T14:55:59.379Z,26.71
2023-05-09T15:00:13.066Z,26.77
2023-05-09T15:04:28.179Z,27.78
2023-05-09T15:08:30.930Z,27.31
2023-05-09T15:12:33.548Z,29.30
2023-05-09T15:16:36.234Z,25.96
2023-05-09T15:20:40.446Z,26.30
2023-05-09T15:24:44.236Z,27.75
2023-05-09T15:28:46.870Z,28.92
2023-05-09T15:32:49.543Z,26.58
2023-05-09T15:36:53.506Z,27.07
2023-05-09T15:40:56.632Z,28.43
2023-05-09T15:44:59.223Z,28.46
2023-05-09T15:49:01.851Z,29.56
2023-05-09T15:53:06.423Z,28.10
2023-05-09T15:57:10.675Z,27.95
2023-05-09T16:01:14.533Z,27.47
2023-05-09T16:05:17.367Z,26.94
2023-05-09T16:09:22.342Z,27.07
2023-05-09T16:13:25.041Z,29.44
2023-05-09T16:17:27.843Z,30.76
2023-05-09T16:21:32.967Z,29.84
2023-05-09T16:25:37.058Z,30.54
2023-05-09T16:29:40.344Z,31.33
2023-05-09T16:33:43.935Z,33.47
2023-05-09T16:37:46.688Z,34.61
2023-05-09T16:41:50.782Z,34.67
2023-05-09T16:45:54.385Z,33.65
2023-05-09T16:49:56.995Z,32.44
2023-05-09T16:53:59.612Z,32.58
2023-05-09T16:58:03.677Z,33.49
2023-05-09T17:02:06.520Z,33.72
2023-05-09T17:06:09.328Z,34.85
2023-05-09T17:10:12.458Z,35.08
2023-05-09T17:14:16.469Z,35.29
2023-05-09T17:18:29.138Z,37.01
2023-05-09T17:22:39.344Z,37.38
2023-05-09T17:26:41.948Z,38.02
2023-05-09T17:30:46.266Z,38.46
2023-05-09T17:34:48.889Z,38.56
2023-05-09T17:38:51.470Z,39.56
2023-05-09T17:42:54.171Z,40.64
2023-05-09T17:46:58.894Z,41.13
2023-05-09T17:51:01.596Z,42.09
2023-05-09T17:55:05.097Z,42.92
2023-05-09T17:59:07.990Z,43.15
2023-05-09T18:03:12.122Z,44.01
2023-05-09T18:07:15.063Z,45.14
2023-05-09T18:11:24.513Z,45.69
2023-05-09T18:15:27.512Z,46.74
2023-05-09T18:19:31.570Z,46.49
2023-05-09T18:23:34.245Z,46.68
2023-05-09T18:27:36.849Z,47.88
2023-05-09T18:31:41.441Z,47.33
2023-05-09T18:35:45.501Z,47.28
2023-05-09T18:39:48.882Z,45.92
2023-05-09T18:43:51.515Z,47.16
2023-05-09T18:47:54.173Z,47.58
2023-05-09T18:52:00.113Z,48.08
2023-05-09T18:56:02.795Z,48.62
2023-05-09T19:00:06.372Z,50.28
2023-05-09T19:04:09.133Z,51.39
2023-05-09T19:08:13.077Z,50.67
2023-05-09T19:12:16.401Z,50.56
2023-05-09T19:16:21.666Z,52.47
2023-05-09T19:20:25.047Z,52.44
2023-05-09T19:24:29.059Z,51.38
2023-05-09T19:28:31.686Z,51.11
2023-05-09T19:32:34.309Z,50.81
2023-05-09T19:36:37.416Z,51.14
2023-05-09T19:40:42.151Z,53.76
2023-05-09T19:44:45.250Z,53.97
2023-05-09T19:48:47.846Z,54.28
2023-05-09T19:52:50.687Z,54.12
2023-05-09T19:56:54.663Z,54.08
2023-05-09T20:00:57.277Z,53.10
2023-05-09T20:05:00.384Z,52.73
2023-05-09T20:09:03.001Z,54.59
2023-05-09T20:13:06.989Z,55.82
2023-05-09T20:17:09.804Z,56.58
2023-05-09T20:21:13.275Z,55.83
2023-05-09T20:25:15.968Z,56.44
2023-05-09T20:29:20.005Z,56.94
2023-05-09T20:33:22.655Z,56.70
2023-05-09T20:37:25.259Z,56.82
2023-05-09T20:41:27.991Z,56.32
2023-05-09T20:45:32.129Z,56.09
2023-05-09T20:49:34.773Z,55.67
2023-05-09T20:53:37.766Z,55.65
2023-05-09T20:57:40.449Z,55.72
2023-05-09T21:01:44.561Z,55.51
2023-05-09T21:05:47.158Z,55.89
2023-05-09T21:09:50.763Z,56.12
2023-05-09T21:13:53.365Z,56.03
2023-05-09T21:17:57.414Z,56.09
2023-05-09T21:22:00.127Z,56.20
2023-05-09T21:26:03.254Z,55.89
2023-05-09T21:30:07.172Z,55.55
2023-05-09T21:34:11.110Z,55.77
2023-05-09T21:38:13.961Z,55.32
2023-05-09T21:42:16.581Z,55.65
2023-05-09T21:46:19.247Z,55.98
2023-05-09T21:50:23.536Z,56.14
2023-05-09T21:54:26.185Z,56.59
2023-05-09T21:58:28.812Z,55.87
2023-05-09T22:02:31.757Z,56.04
2023-05-09T22:06:35.784Z,56.27
2023-05-09T22:10:38.698Z,55.87
2023-05-09T22:14:52.527Z,56.09
2023-05-09T22:18:55.863Z,57.49
2023-05-09T22:22:59.798Z,57.04
2023-05-09T22:27:02.483Z,56.96
2023-05-09T22:31:06.516Z,57.85
2023-05-09T22:35:09.955Z,61.67
2023-05-09T22:39:14.129Z,63.77
2023-05-09T22:43:16.788Z,62.54
2023-05-09T22:47:19.399Z,61.85
2023-05-09T22:51:22.717Z,62.77
2023-05-09T22:55:26.675Z,62.13
2023-05-09T22:59:29.250Z,62.13
2023-05-09T23:03:31.970Z,62.38
2023-05-09T23:07:34.580Z,62.23
2023-05-09T23:11:38.573Z,62.72
2023-05-09T23:15:41.203Z,62.43
2023-05-09T23:19:43.831Z,62.16
2023-05-09T23:23:46.584Z,62.08
2023-05-09T23:27:50.626Z,62.00
2023-05-09T23:31:53.241Z,62.08
2023-05-09T23:35:56.058Z,62.08
2023-05-09T23:39:58.985Z,62.31
2023-05-09T23:44:03.451Z,61.61
2023-05-09T23:48:07.191Z,61.95
2023-05-09T23:52:09.940Z,62.17
2023-05-09T23:56:12.565Z,61.46
